createdAt,value
2023-02-09T00:01:10.992Z,103069.50
2023-02-09T00:03:39.646Z,103065.34
2023-02-09T00:06:08.095Z,103052.78
2023-02-09T00:08:35.952Z,103055.97
2023-02-09T00:11:10.887Z,103055.44
2023-02-09T00:13:37.937Z,103051.28
2023-02-09T00:16:04.967Z,103048.16
2023-02-09T00:18:32.423Z,103044.50
2023-02-09T00:21:03.618Z,103050.28
2023-02-09T00:23:31.415Z,103041.38
2023-02-09T00:26:16.115Z,103045.59
2023-02-09T00:28:42.722Z,103038.75
2023-02-09T00:31:11.611Z,103038.78
2023-02-09T00:33:38.646Z,103034.03
2023-02-09T00:36:07.523Z,103031.19
2023-02-09T00:38:35.081Z,103031.94
2023-02-09T00:41:02.019Z,103029.09
2023-02-09T00:43:28.467Z,103037.72
2023-02-09T00:45:54.970Z,103029.59
2023-02-09T00:48:21.493Z,103034.34
2023-02-09T00:50:48.020Z,103034.56
2023-02-09T00:53:14.463Z,103032.22
2023-02-09T00:55:41.042Z,103027.78
2023-02-09T00:58:07.487Z,103031.97
2023-02-09T01:00:34.214Z,103032.75
2023-02-09T01:03:00.678Z,103033.81
2023-02-09T01:05:27.104Z,103037.75
2023-02-09T01:07:54.062Z,103034.06
2023-02-09T01:10:20.607Z,103032.78
2023-02-09T01:12:47.048Z,103036.16
2023-02-09T01:15:13.620Z,103042.47
2023-02-09T01:17:40.512Z,103034.59
2023-02-09T01:20:08.824Z,103035.66
2023-02-09T01:22:38.362Z,103013.94
2023-02-09T01:25:05.888Z,103008.19
2023-02-09T01:27:32.453Z,103000.59
2023-02-09T01:29:58.936Z,102996.69
2023-02-09T01:32:25.449Z,102992.78
2023-02-09T01:34:55.593Z,103001.13
2023-02-09T01:37:22.118Z,102995.13
2023-02-09T01:39:48.638Z,102991.19
2023-02-09T01:42:17.176Z,102993.03
2023-02-09T01:44:43.486Z,103002.72
2023-02-09T01:47:14.738Z,102997.50
2023-02-09T01:49:41.372Z,102985.97
2023-02-09T01:52:12.457Z,102990.97
2023-02-09T01:54:46.870Z,102989.66
2023-02-09T01:57:25.354Z,102984.44
2023-02-09T01:59:54.886Z,102980.75
2023-02-09T02:02:22.610Z,102971.88
2023-02-09T02:04:50.048Z,102966.38
2023-02-09T02:07:25.674Z,102964.59
2023-02-09T02:09:52.426Z,102961.94
2023-02-09T02:12:18.899Z,102956.47
2023-02-09T02:14:45.412Z,102964.84
2023-02-09T02:17:30.798Z,102961.69
2023-02-09T02:20:15.599Z,102957.78
2023-02-09T02:22:59.847Z,102951.22
2023-02-09T02:25:49.896Z,102956.69
2023-02-09T02:28:28.622Z,102950.94
2023-02-09T02:30:58.169Z,102953.84
2023-02-09T02:33:52.798Z,102943.38
2023-02-09T02:36:44.332Z,102936.56
2023-02-09T02:39:31.224Z,102933.94
2023-02-09T02:42:24.339Z,102930.03
2023-02-09T02:45:06.626Z,102931.38
2023-02-09T02:47:35.032Z,102927.16
2023-02-09T02:50:08.474Z,102926.13
2023-02-09T02:52:34.885Z,102924.84
2023-02-09T02:55:06.598Z,102911.75
2023-02-09T02:57:34.678Z,102919.63
2023-02-09T03:00:05.377Z,102918.31
2023-02-09T03:02:36.910Z,102919.09
2023-02-09T03:05:05.047Z,102920.38
2023-02-09T03:07:31.907Z,102919.59
2023-02-09T03:09:58.794Z,102914.13
2023-02-09T03:12:41.336Z,102914.91
2023-02-09T03:15:17.503Z,102912.56
2023-02-09T03:18:17.691Z,102904.44
2023-02-09T03:20:47.535Z,102895.81
2023-02-09T03:23:27.727Z,102894.53
2023-02-09T03:25:56.181Z,102887.75
2023-02-09T03:28:26.009Z,102881.25
2023-02-09T03:30:52.950Z,102873.13
2023-02-09T03:33:21.095Z,102877.31
2023-02-09T03:35:51.118Z,102877.06
2023-02-09T03:38:17.585Z,102876.53
2023-02-09T03:40:45.213Z,102884.06
2023-02-09T03:43:11.842Z,102875.72
2023-02-09T03:45:38.414Z,102878.84
2023-02-09T03:48:05.414Z,102858.44
2023-02-09T03:50:32.794Z,102859.00
2023-02-09T03:52:59.514Z,102857.41
2023-02-09T03:55:26.109Z,102857.72
2023-02-09T03:57:52.703Z,102851.66
2023-02-09T04:00:19.452Z,102846.19
2023-02-09T04:02:46.044Z,102854.78
2023-02-09T04:05:12.791Z,102853.97
2023-02-09T04:07:39.344Z,102848.50
2023-02-09T04:10:06.439Z,102851.13
2023-02-09T04:12:33.031Z,102843.78
2023-02-09T04:14:59.458Z,102853.75
2023-02-09T04:17:25.897Z,102841.13
2023-02-09T04:19:52.464Z,102842.97
2023-02-09T04:22:18.919Z,102833.81
2023-02-09T04:24:45.357Z,102827.28
2023-02-09T04:27:11.813Z,102825.19
2023-02-09T04:29:38.390Z,102821.22
2023-02-09T04:32:05.115Z,102820.94
2023-02-09T04:34:31.512Z,102817.06
2023-02-09T04:36:57.965Z,102812.81
2023-02-09T04:39:24.407Z,102820.69
2023-02-09T04:41:51.091Z,102819.13
2023-02-09T04:44:17.542Z,102825.88
2023-02-09T04:46:45.696Z,102832.41
2023-02-09T04:49:12.700Z,102836.63
2023-02-09T04:51:39.327Z,102834.28
2023-02-09T04:54:05.746Z,102821.50
2023-02-09T04:56:32.146Z,102817.31
2023-02-09T04:59:17.208Z,102804.00
2023-02-09T05:01:43.796Z,102796.72
2023-02-09T05:04:10.201Z,102790.47
2023-02-09T05:06:36.584Z,102783.16
2023-02-09T05:09:03.005Z,102782.63
2023-02-09T05:11:29.495Z,102794.91
2023-02-09T05:13:55.994Z,102798.25
2023-02-09T05:16:22.500Z,102797.22
2023-02-09T05:18:50.575Z,102793.50
2023-02-09T05:21:17.024Z,102795.06
2023-02-09T05:23:43.391Z,102799.22
2023-02-09T05:26:09.925Z,102794.00
2023-02-09T05:28:36.645Z,102788.25
2023-02-09T05:31:03.298Z,102794.97
2023-02-09T05:33:29.890Z,102803.06
2023-02-09T05:35:56.361Z,102801.72
2023-02-09T05:38:23.004Z,102807.97
2023-02-09T05:40:49.738Z,102806.41
2023-02-09T05:43:16.426Z,102804.28
2023-02-09T05:45:43.801Z,102813.22
2023-02-09T05:48:10.289Z,102813.97
2023-02-09T05:50:37.270Z,102823.66
2023-02-09T05:53:03.783Z,102834.38
2023-02-09T05:55:30.351Z,102829.38
2023-02-09T05:57:56.777Z,102827.31
2023-02-09T06:00:25.091Z,102832.09
2023-02-09T06:02:51.848Z,102840.47
2023-02-09T06:05:19.903Z,102833.66
2023-02-09T06:07:46.470Z,102826.94
2023-02-09T06:10:12.853Z,102833.16
2023-02-09T06:12:41.112Z,102837.91
2023-02-09T06:15:08.228Z,102830.78
2023-02-09T06:17:34.648Z,102838.94
2023-02-09T06:20:01.055Z,102841.56
2023-02-09T06:22:29.143Z,102842.06
2023-02-09T06:24:55.634Z,102845.44
2023-02-09T06:27:22.169Z,102848.25
2023-02-09T06:29:48.676Z,102849.31
2023-02-09T06:32:15.217Z,102849.03
2023-02-09T06:34:41.635Z,102851.69
2023-02-09T06:37:08.054Z,102853.00
2023-02-09T06:39:34.611Z,102843.06
2023-02-09T06:42:01.208Z,102844.38
2023-02-09T06:44:27.739Z,102842.06
2023-02-09T06:46:54.618Z,102853.56
2023-02-09T06:49:23.886Z,102836.28
2023-02-09T06:51:50.609Z,102839.09
2023-02-09T06:54:17.223Z,102833.06
2023-02-09T06:56:43.648Z,102829.69
2023-02-09T06:59:10.212Z,102841.22
2023-02-09T07:01:37.387Z,102839.91
2023-02-09T07:04:03.830Z,102834.69
2023-02-09T07:06:30.466Z,102831.81
2023-02-09T07:08:56.982Z,102833.16
2023-02-09T07:11:23.419Z,102832.72
2023-02-09T07:13:49.876Z,102835.31
2023-02-09T07:16:16.786Z,102840.16
2023-02-09T07:18:43.392Z,102832.97
2023-02-09T07:21:12.874Z,102838.63
2023-02-09T07:23:39.309Z,102840.19
2023-02-09T07:26:08.469Z,102842.22
2023-02-09T07:28:35.469Z,102845.84
2023-02-09T07:31:05.220Z,102851.19
2023-02-09T07:33:32.176Z,102849.72
2023-02-09T07:35:59.214Z,102851.06
2023-02-09T07:38:26.403Z,102864.94
2023-02-09T07:40:53.070Z,102860.22
2023-02-09T07:43:19.657Z,102859.91
2023-02-09T07:45:46.674Z,102860.41
2023-02-09T07:48:13.248Z,102866.50
2023-02-09T07:50:39.722Z,102861.47
2023-02-09T07:53:06.319Z,102862.91
2023-02-09T07:55:32.802Z,102857.47
2023-02-09T07:57:59.706Z,102858.66
2023-02-09T08:00:26.103Z,102852.84
2023-02-09T08:02:52.773Z,102861.41
2023-02-09T08:05:26.120Z,102854.72
2023-02-09T08:07:52.742Z,102876.06
2023-02-09T08:10:19.641Z,102867.13
2023-02-09T08:13:02.059Z,102872.59
2023-02-09T08:15:38.250Z,102865.13
2023-02-09T08:18:10.190Z,102882.16
2023-02-09T08:20:37.629Z,102877.53
2023-02-09T08:23:14.984Z,102874.22
2023-02-09T08:25:41.475Z,102861.59
2023-02-09T08:28:08.026Z,102873.34
2023-02-09T08:30:35.028Z,102869.19
2023-02-09T08:33:02.165Z,102877.16
2023-02-09T08:35:30.573Z,102876.97
2023-02-09T08:38:00.709Z,102870.88
2023-02-09T08:40:27.188Z,102868.44
2023-02-09T08:42:53.934Z,102860.06
2023-02-09T08:45:20.603Z,102862.38
2023-02-09T08:47:47.214Z,102864.06
2023-02-09T08:50:13.762Z,102864.00
2023-02-09T08:52:40.276Z,102864.63
2023-02-09T08:55:07.068Z,102874.28
2023-02-09T08:57:43.434Z,102863.34
2023-02-09T09:00:11.453Z,102854.16
2023-02-09T09:02:37.910Z,102857.63
2023-02-09T09:05:04.633Z,102873.06
2023-02-09T09:07:31.101Z,102851.22
2023-02-09T09:09:57.588Z,102837.19
2023-02-09T09:12:24.266Z,102818.38
2023-02-09T09:14:50.977Z,102831.91
2023-02-09T09:17:17.639Z,102832.84
2023-02-09T09:19:44.184Z,102843.13
2023-02-09T09:22:10.642Z,102839.28
2023-02-09T09:24:40.660Z,102829.16
2023-02-09T09:27:08.567Z,102834.88
2023-02-09T09:29:36.028Z,102830.09
2023-02-09T09:32:03.008Z,102836.31
2023-02-09T09:34:29.556Z,102846.41
2023-02-09T09:36:55.959Z,102845.94
2023-02-09T09:39:22.567Z,102849.19
2023-02-09T09:41:50.372Z,102845.47
2023-02-09T09:44:31.067Z,102855.41
2023-02-09T09:47:01.290Z,102839.91
2023-02-09T09:49:29.524Z,102838.78
2023-02-09T09:52:16.821Z,102837.69
2023-02-09T09:54:43.901Z,102849.31
2023-02-09T09:57:38.287Z,102849.16
2023-02-09T10:00:20.791Z,102858.13
2023-02-09T10:02:47.771Z,102843.31
2023-02-09T10:05:20.408Z,102840.91
2023-02-09T10:07:54.540Z,102840.66
2023-02-09T10:10:46.012Z,102843.56
2023-02-09T10:13:26.393Z,102844.59
2023-02-09T10:15:54.830Z,102846.69
2023-02-09T10:18:25.667Z,102843.72
2023-02-09T10:21:06.895Z,102845.59
2023-02-09T10:23:39.482Z,102838.31
2023-02-09T10:26:08.892Z,102835.63
2023-02-09T10:28:43.968Z,102839.09
2023-02-09T10:31:16.143Z,102846.47
2023-02-09T10:33:44.661Z,102854.25
2023-02-09T10:36:23.836Z,102856.25
2023-02-09T10:38:52.082Z,102868.78
2023-02-09T10:41:19.375Z,102872.44
2023-02-09T10:43:51.153Z,102853.69
2023-02-09T10:46:19.150Z,102864.50
2023-02-09T10:48:46.923Z,102858.97
2023-02-09T10:51:16.432Z,102860.28
2023-02-09T10:54:07.524Z,102865.28
2023-02-09T10:56:43.430Z,102863.50
2023-02-09T10:59:36.641Z,102869.38
2023-02-09T11:02:03.064Z,102885.84
2023-02-09T11:04:40.444Z,102874.88
2023-02-09T11:07:12.745Z,102866.28
2023-02-09T11:09:50.523Z,102859.31
2023-02-09T11:12:16.986Z,102867.06
2023-02-09T11:14:43.906Z,102858.69
2023-02-09T11:17:30.853Z,102863.34
2023-02-09T11:20:20.341Z,102862.13
2023-02-09T11:23:06.912Z,102866.91
2023-02-09T11:25:39.199Z,102874.19
2023-02-09T11:28:30.278Z,102859.22
2023-02-09T11:31:15.545Z,102861.53
2023-02-09T11:34:00.605Z,102866.38
2023-02-09T11:36:41.278Z,102870.44
2023-02-09T11:39:12.178Z,102872.81
2023-02-09T11:42:02.680Z,102878.72
2023-02-09T11:44:35.709Z,102869.66
2023-02-09T11:47:09.864Z,102867.13
2023-02-09T11:49:51.040Z,102870.44
2023-02-09T11:52:39.095Z,102874.09
2023-02-09T11:55:23.164Z,102867.91
2023-02-09T11:57:54.296Z,102864.59
2023-02-09T12:00:26.895Z,102860.91
2023-02-09T12:03:05.144Z,102872.72
2023-02-09T12:05:31.840Z,102870.97
2023-02-09T12:08:18.444Z,102861.34
2023-02-09T12:11:07.975Z,102861.56
2023-02-09T12:14:02.583Z,102869.53
2023-02-09T12:16:34.175Z,102867.66
2023-02-09T12:19:02.045Z,102875.59
2023-02-09T12:21:32.518Z,102871.44
2023-02-09T12:24:00.911Z,102869.31
2023-02-09T12:26:37.596Z,102873.78
2023-02-09T12:29:34.090Z,102882.53
2023-02-09T12:32:03.549Z,102879.28
2023-02-09T12:34:47.421Z,102865.19
2023-02-09T12:37:13.931Z,102857.16
2023-02-09T12:40:11.340Z,102852.50
2023-02-09T12:42:43.213Z,102851.06
2023-02-09T12:45:30.049Z,102839.03
2023-02-09T12:48:07.515Z,102832.06
2023-02-09T12:50:48.802Z,102825.22
2023-02-09T12:53:26.344Z,102838.69
2023-02-09T12:56:09.053Z,102832.84
2023-02-09T12:58:45.598Z,102837.03
2023-02-09T13:01:14.007Z,102830.63
2023-02-09T13:04:01.405Z,102819.59
2023-02-09T13:06:36.875Z,102809.41
2023-02-09T13:09:08.916Z,102802.22
2023-02-09T13:12:00.387Z,102800.56
2023-02-09T13:14:27.229Z,102806.09
2023-02-09T13:17:05.902Z,102809.09
2023-02-09T13:20:09.691Z,102817.56
2023-02-09T13:23:31.754Z,102812.50
2023-02-09T13:26:15.784Z,102807.72
2023-02-09T13:28:42.457Z,102806.66
2023-02-09T13:31:33.448Z,102798.31
2023-02-09T13:34:14.252Z,102800.00
2023-02-09T13:36:45.564Z,102799.81
2023-02-09T13:39:22.785Z,102797.69
2023-02-09T13:41:50.022Z,102799.75
2023-02-09T13:44:21.569Z,102788.19
2023-02-09T13:46:56.712Z,102803.25
2023-02-09T13:49:24.569Z,102797.25
2023-02-09T13:52:09.657Z,102806.09
2023-02-09T13:54:36.311Z,102796.78
2023-02-09T13:57:03.514Z,102801.25
2023-02-09T13:59:30.035Z,102783.34
2023-02-09T14:01:56.493Z,102782.88
2023-02-09T14:04:26.387Z,102791.53
2023-02-09T14:07:16.243Z,102799.91
2023-02-09T14:09:54.816Z,102798.25
2023-02-09T14:12:55.594Z,102800.59
2023-02-09T14:15:45.471Z,102795.72
2023-02-09T14:18:30.736Z,102796.84
2023-02-09T14:21:15.007Z,102792.84
2023-02-09T14:23:44.713Z,102794.72
2023-02-09T14:26:14.152Z,102800.78
2023-02-09T14:28:42.194Z,102804.78
2023-02-09T14:31:20.300Z,102804.31
2023-02-09T14:33:51.268Z,102802.56
2023-02-09T14:36:21.479Z,102804.31
2023-02-09T14:38:49.391Z,102798.13
2023-02-09T14:41:30.082Z,102814.50
2023-02-09T14:44:20.947Z,102827.13
2023-02-09T14:46:51.715Z,102825.78
2023-02-09T14:49:19.400Z,102814.75
2023-02-09T14:51:47.334Z,102827.75
2023-02-09T14:54:24.518Z,102830.34
2023-02-09T14:56:52.721Z,102824.56
2023-02-09T14:59:20.511Z,102828.91
2023-02-09T15:01:48.877Z,102836.34
2023-02-09T15:04:15.307Z,102831.97
2023-02-09T15:06:43.388Z,102838.09
2023-02-09T15:09:18.060Z,102832.28
2023-02-09T15:12:03.388Z,102842.00
2023-02-09T15:14:35.715Z,102836.34
2023-02-09T15:17:04.464Z,102831.56
2023-02-09T15:19:30.966Z,102837.50
2023-02-09T15:22:07.044Z,102837.00
2023-02-09T15:24:36.125Z,102846.03
2023-02-09T15:27:02.822Z,102847.63
2023-02-09T15:29:30.489Z,102842.47
2023-02-09T15:31:57.042Z,102835.72
2023-02-09T15:34:23.733Z,102828.72
2023-02-09T15:36:50.210Z,102833.78
2023-02-09T15:39:21.224Z,102845.41
2023-02-09T15:42:26.581Z,102836.78
2023-02-09T15:45:12.502Z,102840.63
2023-02-09T15:47:53.394Z,102844.56
2023-02-09T15:50:19.960Z,102856.72
2023-02-09T15:52:46.721Z,102854.34
2023-02-09T15:55:19.409Z,102860.28
2023-02-09T15:57:46.011Z,102862.22
2023-02-09T16:00:31.158Z,102862.69
2023-02-09T16:03:00.224Z,102860.28
2023-02-09T16:05:28.752Z,102864.34
2023-02-09T16:07:55.660Z,102863.34
2023-02-09T16:10:24.600Z,102863.69
2023-02-09T16:12:51.914Z,102860.47
2023-02-09T16:15:23.257Z,102868.38
2023-02-09T16:17:50.602Z,102867.72
2023-02-09T16:20:18.433Z,102871.44
2023-02-09T16:22:47.366Z,102872.75
2023-02-09T16:25:25.264Z,102876.97
2023-02-09T16:27:52.874Z,102875.88
2023-02-09T16:30:22.301Z,102874.34
2023-02-09T16:32:49.397Z,102869.13
2023-02-09T16:35:17.823Z,102871.84
2023-02-09T16:37:45.764Z,102877.16
2023-02-09T16:40:21.447Z,102879.28
2023-02-09T16:42:48.680Z,102883.78
2023-02-09T16:45:15.949Z,102878.81
2023-02-09T16:47:45.863Z,102887.81
2023-02-09T16:50:27.452Z,102883.03
2023-02-09T16:52:56.162Z,102889.56
2023-02-09T16:55:24.714Z,102902.13
2023-02-09T16:57:55.053Z,102900.69
2023-02-09T17:00:26.869Z,102900.41
2023-02-09T17:02:59.054Z,102910.28
2023-02-09T17:05:31.392Z,102909.41
2023-02-09T17:08:15.148Z,102914.13
2023-02-09T17:10:41.604Z,102899.78
2023-02-09T17:13:08.177Z,102907.34
2023-02-09T17:15:40.480Z,102908.91
2023-02-09T17:18:08.583Z,102913.13
2023-02-09T17:20:38.265Z,102923.25
2023-02-09T17:23:04.919Z,102920.25
2023-02-09T17:25:31.557Z,102928.72
2023-02-09T17:27:58.143Z,102943.81
2023-02-09T17:30:25.564Z,102937.91
2023-02-09T17:32:59.691Z,102931.31
2023-02-09T17:35:52.963Z,102938.03
2023-02-09T17:38:21.241Z,102946.25
2023-02-09T17:40:47.669Z,102944.06
2023-02-09T17:43:14.098Z,102947.03
2023-02-09T17:45:41.949Z,102951.91
2023-02-09T17:48:08.825Z,102956.06
2023-02-09T17:50:35.229Z,102949.38
2023-02-09T17:53:01.950Z,102944.38
2023-02-09T17:55:30.081Z,102949.81
2023-02-09T17:57:59.038Z,102954.97
2023-02-09T18:00:26.765Z,102957.66
2023-02-09T18:02:53.859Z,102965.97
2023-02-09T18:05:25.260Z,102966.69
2023-02-09T18:07:52.578Z,102962.91
2023-02-09T18:10:21.542Z,102970.69
2023-02-09T18:12:50.122Z,102975.88
2023-02-09T18:15:23.197Z,102978.09
2023-02-09T18:17:50.125Z,102972.13
2023-02-09T18:20:18.982Z,102988.00
2023-02-09T18:22:45.873Z,102982.94
2023-02-09T18:25:25.163Z,102978.06
2023-02-09T18:27:51.743Z,102988.59
2023-02-09T18:30:25.623Z,102991.53
2023-02-09T18:32:52.970Z,102999.00
2023-02-09T18:35:25.073Z,102987.75
2023-02-09T18:37:52.336Z,102994.50
2023-02-09T18:40:19.440Z,102991.81
2023-02-09T18:42:46.654Z,102990.75
2023-02-09T18:45:14.784Z,102991.03
2023-02-09T18:47:43.010Z,102996.47
2023-02-09T18:50:20.490Z,102996.59
2023-02-09T18:52:49.642Z,102990.59
2023-02-09T18:55:16.326Z,102993.56
2023-02-09T18:57:42.864Z,102997.72
2023-02-09T19:00:11.257Z,102997.22
2023-02-09T19:02:37.866Z,102999.75
2023-02-09T19:05:05.806Z,102996.59
2023-02-09T19:07:33.995Z,103004.66
2023-02-09T19:10:00.962Z,103012.16
2023-02-09T19:12:28.344Z,103003.38
2023-02-09T19:14:55.108Z,103009.59
2023-02-09T19:17:21.592Z,103014.59
2023-02-09T19:19:48.505Z,103015.41
2023-02-09T19:22:21.110Z,103013.69
2023-02-09T19:24:50.410Z,103020.56
2023-02-09T19:27:18.912Z,103020.69
2023-02-09T19:29:47.250Z,103026.25
2023-02-09T19:32:14.875Z,103024.28
2023-02-09T19:34:43.261Z,103014.03
2023-02-09T19:37:11.191Z,103021.16
2023-02-09T19:39:39.948Z,103016.06
2023-02-09T19:42:06.760Z,103010.34
2023-02-09T19:44:33.611Z,103019.75
2023-02-09T19:47:00.308Z,103017.16
2023-02-09T19:49:26.970Z,103016.06
2023-02-09T19:51:53.689Z,103021.03
2023-02-09T19:54:20.552Z,103017.59
2023-02-09T19:56:47.254Z,103013.84
2023-02-09T19:59:16.957Z,103020.69
2023-02-09T20:01:43.707Z,103018.91
2023-02-09T20:04:10.306Z,103022.59
2023-02-09T20:06:36.778Z,103018.47
2023-02-09T20:09:03.450Z,103023.34
2023-02-09T20:11:29.946Z,103014.13
2023-02-09T20:13:56.554Z,103002.38
2023-02-09T20:16:25.274Z,103013.75
2023-02-09T20:18:52.538Z,103014.63
2023-02-09T20:21:20.866Z,103005.03
2023-02-09T20:23:48.022Z,103011.97
2023-02-09T20:26:17.326Z,103015.06
2023-02-09T20:28:44.287Z,103017.63
2023-02-09T20:31:11.310Z,103003.53
2023-02-09T20:33:39.168Z,103014.03
2023-02-09T20:36:07.321Z,103007.59
2023-02-09T20:38:36.316Z,103003.88
2023-02-09T20:41:03.419Z,103009.34
2023-02-09T20:44:05.520Z,103008.13
2023-02-09T20:46:52.122Z,103004.56
2023-02-09T20:49:18.732Z,103009.41
2023-02-09T20:51:46.349Z,103010.53
2023-02-09T20:54:14.358Z,103018.16
2023-02-09T20:56:41.119Z,103014.56
2023-02-09T20:59:08.204Z,103013.81
2023-02-09T21:01:37.408Z,103012.41
2023-02-09T21:04:06.420Z,103001.50
2023-02-09T21:06:33.949Z,103012.56
2023-02-09T21:09:00.513Z,103012.25
2023-02-09T21:11:27.133Z,102998.56
2023-02-09T21:13:54.959Z,102995.00
2023-02-09T21:16:21.838Z,102993.22
2023-02-09T21:18:48.329Z,102993.56
2023-02-09T21:21:16.517Z,103005.53
2023-02-09T21:23:44.181Z,103004.28
2023-02-09T21:26:14.312Z,103005.22
2023-02-09T21:28:40.807Z,103000.56
2023-02-09T21:31:12.223Z,103009.91
2023-02-09T21:33:40.006Z,103012.06
2023-02-09T21:36:08.074Z,103015.34
2023-02-09T21:38:37.251Z,103013.47
2023-02-09T21:41:35.739Z,103023.41
2023-02-09T21:44:02.846Z,103008.34
2023-02-09T21:46:29.425Z,103024.84
2023-02-09T21:48:56.301Z,103022.66
2023-02-09T21:51:22.936Z,103025.94
2023-02-09T21:53:49.429Z,103030.75
2023-02-09T21:56:16.274Z,103024.22
2023-02-09T21:58:42.914Z,103028.91
2023-02-09T22:01:12.264Z,103037.59
2023-02-09T22:03:39.267Z,103033.25
2023-02-09T22:06:06.814Z,103034.91
2023-02-09T22:08:33.365Z,103046.94
2023-02-09T22:11:01.692Z,103043.81
2023-02-09T22:13:28.901Z,103046.88
2023-02-09T22:15:55.806Z,103047.03
2023-02-09T22:18:22.624Z,103047.81
2023-02-09T22:20:50.786Z,103049.81
2023-02-09T22:23:18.490Z,103046.72
2023-02-09T22:25:45.098Z,103055.25
2023-02-09T22:28:12.083Z,103065.19
2023-02-09T22:30:38.606Z,103063.63
2023-02-09T22:33:05.957Z,103066.09
2023-02-09T22:35:32.493Z,103062.72
2023-02-09T22:37:58.944Z,103061.59
2023-02-09T22:40:25.397Z,103072.00
2023-02-09T22:42:52.163Z,103076.31
2023-02-09T22:45:18.872Z,103072.19
2023-02-09T22:47:45.298Z,103079.75
2023-02-09T22:50:12.059Z,103090.03
2023-02-09T22:52:38.564Z,103092.03
2023-02-09T22:55:05.409Z,103102.78
2023-02-09T22:57:31.850Z,103106.44
2023-02-09T22:59:58.276Z,103110.47
2023-02-09T23:02:25.036Z,103111.50
2023-02-09T23:04:51.449Z,103107.50
2023-02-09T23:07:17.901Z,103102.97
2023-02-09T23:09:44.443Z,103116.81
2023-02-09T23:12:10.870Z,103102.78
2023-02-09T23:14:37.328Z,103114.84
2023-02-09T23:17:03.766Z,103110.00
2023-02-09T23:19:30.329Z,103113.47
2023-02-09T23:21:56.754Z,103119.69
2023-02-09T23:24:24.582Z,103123.03
2023-02-09T23:26:51.633Z,103122.09
2023-02-09T23:29:18.831Z,103125.53
2023-02-09T23:31:46.067Z,103132.19
2023-02-09T23:34:21.132Z,103121.44
2023-02-09T23:36:47.613Z,103125.34
2023-02-09T23:39:17.447Z,103122.25
2023-02-09T23:41:43.933Z,103120.94
2023-02-09T23:44:10.987Z,103122.31
2023-02-09T23:46:37.446Z,103112.25
2023-02-09T23:49:03.994Z,103108.81
2023-02-09T23:51:32.755Z,103107.72
2023-02-09T23:54:01.762Z,103113.03
2023-02-09T23:56:29.949Z,103116.91
2023-02-09T23:58:56.461Z,103116.91
